sensor_id;sensor_type;location;lat;lon;timestamp;pressure;altitude;pressure_sealevel;temperature;humidity
3250;BME280;1637;42.020;23.992;2023-01-26T00:01:50;93166.34;;;-0.90;100.00
3250;BME280;1637;42.020;23.992;2023-01-26T00:04:18;93163.09;;;-0.87;100.00
3250;BME280;1637;42.020;23.992;2023-01-26T00:06:44;93160.91;;;-0.85;100.00
3250;BME280;1637;42.020;23.992;2023-01-26T00:09:12;93160.59;;;-0.84;100.00
3250;BME280;1637;42.020;23.992;2023-01-26T00:11:41;93158.59;;;-0.87;100.00
3250;BME280;1637;42.020;23.992;2023-01-26T00:14:08;93164.63;;;-0.86;100.00
3250;BME280;1637;42.020;23.992;2023-01-26T00:16:35;93177.38;;;-0.97;100.00
3250;BME280;1637;42.020;23.992;2023-01-26T00:19:02;93169.56;;;-0.85;100.00
3250;BME280;1637;42.020;23.992;2023-01-26T00:21:29;93164.31;;;-0.85;100.00
3250;BME280;1637;42.020;23.992;2023-01-26T00:23:56;93163.28;;;-0.92;100.00
3250;BME280;1637;42.020;23.992;2023-01-26T00:26:25;93160.59;;;-0.84;100.00
3250;BME280;1637;42.020;23.992;2023-01-26T00:28:54;93164.69;;;-0.74;100.00
3250;BME280;1637;42.020;23.992;2023-01-26T00:31:22;93157.88;;;-0.96;100.00
3250;BME280;1637;42.020;23.992;2023-01-26T00:33:50;93154.28;;;-1.12;100.00
3250;BME280;1637;42.020;23.992;2023-01-26T00:36:17;93153.41;;;-0.75;100.00
3250;BME280;1637;42.020;23.992;2023-01-26T00:38:43;93165.91;;;-0.72;100.00
3250;BME280;1637;42.020;23.992;2023-01-26T00:41:10;93170.22;;;-0.46;100.00
3250;BME280;1637;42.020;23.992;2023-01-26T00:43:59;93155.25;;;-0.75;100.00
3250;BME280;1637;42.020;23.992;2023-01-26T00:46:26;93162.28;;;-0.25;100.00
3250;BME280;1637;42.020;23.992;2023-01-26T00:48:52;93155.50;;;-0.14;100.00
3250;BME280;1637;42.020;23.992;2023-01-26T00:51:19;93143.44;;;-0.15;100.00
3250;BME280;1637;42.020;23.992;2023-01-26T00:53:46;93146.22;;;0.00;99.87
3250;BME280;1637;42.020;23.992;2023-01-26T00:56:13;93136.50;;;-0.20;100.00
3250;BME280;1637;42.020;23.992;2023-01-26T00:58:40;93141.69;;;-0.11;99.64
3250;BME280;1637;42.020;23.992;2023-01-26T01:01:08;93139.25;;;-0.28;98.93
3250;BME280;1637;42.020;23.992;2023-01-26T01:03:35;93138.66;;;-0.67;100.00
3250;BME280;1637;42.020;23.992;2023-01-26T01:06:02;93136.16;;;-0.63;100.00
3250;BME280;1637;42.020;23.992;2023-01-26T01:08:29;93134.63;;;-0.64;100.00
3250;BME280;1637;42.020;23.992;2023-01-26T01:11:03;93132.72;;;-0.43;100.00
3250;BME280;1637;42.020;23.992;2023-01-26T01:13:30;93134.16;;;-0.66;100.00
3250;BME280;1637;42.020;23.992;2023-01-26T01:15:56;93143.13;;;-0.47;99.39
3250;BME280;1637;42.020;23.992;2023-01-26T01:18:24;93138.41;;;-0.41;100.00
3250;BME280;1637;42.020;23.992;2023-01-26T01:20:51;93124.06;;;-0.44;99.55
3250;BME280;1637;42.020;23.992;2023-01-26T01:23:18;93119.59;;;-0.31;100.00
3250;BME280;1637;42.020;23.992;2023-01-26T01:25:45;93116.84;;;-0.02;98.29
3250;BME280;1637;42.020;23.992;2023-01-26T01:28:12;93115.06;;;-0.10;97.84
3250;BME280;1637;42.020;23.992;2023-01-26T01:30:38;93118.53;;;-0.18;97.43
3250;BME280;1637;42.020;23.992;2023-01-26T01:33:05;93103.84;;;-0.52;99.51
3250;BME280;1637;42.020;23.992;2023-01-26T01:35:34;93099.09;;;-0.58;99.48
3250;BME280;1637;42.020;23.992;2023-01-26T01:38:01;93103.72;;;-0.55;99.13
3250;BME280;1637;42.020;23.992;2023-01-26T01:40:28;93095.53;;;-0.75;99.92
3250;BME280;1637;42.020;23.992;2023-01-26T01:42:55;93098.25;;;-0.83;100.00
3250;BME280;1637;42.020;23.992;2023-01-26T01:45:43;93093.41;;;-0.60;100.00
3250;BME280;1637;42.020;23.992;2023-01-26T01:48:16;93095.91;;;-0.43;98.71
3250;BME280;1637;42.020;23.992;2023-01-26T01:50:48;93099.88;;;-0.25;97.77
3250;BME280;1637;42.020;23.992;2023-01-26T01:53:18;93090.16;;;-0.12;97.10
3250;BME280;1637;42.020;23.992;2023-01-26T01:55:50;93091.03;;;-0.08;95.57
3250;BME280;1637;42.020;23.992;2023-01-26T01:58:18;93094.00;;;-0.10;96.52
3250;BME280;1637;42.020;23.992;2023-01-26T02:00:45;93096.88;;;-0.03;96.19
3250;BME280;1637;42.020;23.992;2023-01-26T02:03:12;93097.41;;;0.03;95.59
3250;BME280;1637;42.020;23.992;2023-01-26T02:05:53;93076.09;;;-0.28;97.57
3250;BME280;1637;42.020;23.992;2023-01-26T02:08:24;93085.69;;;0.13;96.70
3250;BME280;1637;42.020;23.992;2023-01-26T02:10:54;93100.72;;;0.12;95.05
3250;BME280;1637;42.020;23.992;2023-01-26T02:13:24;93098.72;;;-0.03;95.20
3250;BME280;1637;42.020;23.992;2023-01-26T02:15:52;93092.75;;;-0.24;96.31
3250;BME280;1637;42.020;23.992;2023-01-26T02:18:19;93091.81;;;-0.41;97.33
3250;BME280;1637;42.020;23.992;2023-01-26T02:20:49;93090.00;;;-0.28;97.13
3250;BME280;1637;42.020;23.992;2023-01-26T02:23:28;93078.97;;;-0.09;96.77
3250;BME280;1637;42.020;23.992;2023-01-26T02:26:07;93075.03;;;0.09;96.04
3250;BME280;1637;42.020;23.992;2023-01-26T02:28:36;93070.00;;;0.16;96.01
3250;BME280;1637;42.020;23.992;2023-01-26T02:31:04;93075.81;;;0.10;95.74
3250;BME280;1637;42.020;23.992;2023-01-26T02:33:32;93028.13;;;-0.46;95.99
3250;BME280;1637;42.020;23.992;2023-01-26T02:36:00;93037.06;;;-0.59;98.77
3250;BME280;1637;42.020;23.992;2023-01-26T02:38:32;93057.44;;;-0.68;100.00
3250;BME280;1637;42.020;23.992;2023-01-26T02:41:03;93055.94;;;-0.57;100.00
3250;BME280;1637;42.020;23.992;2023-01-26T02:43:33;93049.31;;;-0.30;100.00
3250;BME280;1637;42.020;23.992;2023-01-26T02:45:59;93048.63;;;-0.40;100.00
3250;BME280;1637;42.020;23.992;2023-01-26T02:48:26;93050.63;;;-0.37;100.00
3250;BME280;1637;42.020;23.992;2023-01-26T02:51:10;93037.00;;;-0.39;100.00
3250;BME280;1637;42.020;23.992;2023-01-26T02:53:37;93038.03;;;-0.19;100.00
3250;BME280;1637;42.020;23.992;2023-01-26T02:56:05;93030.13;;;-0.19;100.00
3250;BME280;1637;42.020;23.992;2023-01-26T02:58:31;93024.53;;;-0.29;100.00
3250;BME280;1637;42.020;23.992;2023-01-26T03:00:59;93015.69;;;-0.70;100.00
3250;BME280;1637;42.020;23.992;2023-01-26T03:03:27;93019.97;;;-0.65;100.00
3250;BME280;1637;42.020;23.992;2023-01-26T03:06:09;93014.72;;;-0.65;100.00
3250;BME280;1637;42.020;23.992;2023-01-26T03:08:37;93009.28;;;-0.81;100.00
3250;BME280;1637;42.020;23.992;2023-01-26T03:11:05;93014.94;;;-0.58;100.00
3250;BME280;1637;42.020;23.992;2023-01-26T03:13:32;93018.84;;;-0.19;100.00
3250;BME280;1637;42.020;23.992;2023-01-26T03:16:00;93014.13;;;-0.14;99.57
3250;BME280;1637;42.020;23.992;2023-01-26T03:18:32;93015.81;;;-0.54;100.00
3250;BME280;1637;42.020;23.992;2023-01-26T03:21:17;92977.66;;;-0.73;100.00
3250;BME280;1637;42.020;23.992;2023-01-26T03:24:02;92991.06;;;-0.53;100.00
3250;BME280;1637;42.020;23.992;2023-01-26T03:26:46;92996.16;;;-0.24;100.00
3250;BME280;1637;42.020;23.992;2023-01-26T03:29:30;93002.34;;;-0.41;100.00
3250;BME280;1637;42.020;23.992;2023-01-26T03:31:58;92989.03;;;-0.23;100.00
3250;BME280;1637;42.020;23.992;2023-01-26T03:34:25;92987.16;;;-0.23;100.00
3250;BME280;1637;42.020;23.992;2023-01-26T03:36:53;93001.38;;;-0.36;100.00
3250;BME280;1637;42.020;23.992;2023-01-26T03:39:20;92992.09;;;-0.79;100.00
3250;BME280;1637;42.020;23.992;2023-01-26T03:42:04;92987.91;;;-0.92;100.00
3250;BME280;1637;42.020;23.992;2023-01-26T03:44:49;92986.44;;;-0.56;100.00
3250;BME280;1637;42.020;23.992;2023-01-26T03:47:35;92987.44;;;-0.49;100.00
3250;BME280;1637;42.020;23.992;2023-01-26T03:50:19;92982.31;;;-0.45;100.00
3250;BME280;1637;42.020;23.992;2023-01-26T03:53:11;92980.13;;;-0.07;99.26
3250;BME280;1637;42.020;23.992;2023-01-26T03:55:55;92976.28;;;0.03;99.05
3250;BME280;1637;42.020;23.992;2023-01-26T03:58:39;92967.75;;;-0.06;98.76
3250;BME280;1637;42.020;23.992;2023-01-26T04:01:06;92961.16;;;0.00;98.86
3250;BME280;1637;42.020;23.992;2023-01-26T04:03:36;92968.38;;;-0.33;100.00
3250;BME280;1637;42.020;23.992;2023-01-26T04:06:20;92972.56;;;-0.45;100.00
3250;BME280;1637;42.020;23.992;2023-01-26T04:09:05;92968.03;;;-0.56;100.00
3250;BME280;1637;42.020;23.992;2023-01-26T04:11:32;92965.50;;;-0.65;100.00
3250;BME280;1637;42.020;23.992;2023-01-26T04:13:58;92952.69;;;-0.66;100.00
3250;BME280;1637;42.020;23.992;2023-01-26T04:16:43;92949.03;;;-0.74;100.00
3250;BME280;1637;42.020;23.992;2023-01-26T04:19:28;92950.50;;;-0.64;100.00
3250;BME280;1637;42.020;23.992;2023-01-26T04:22:12;92946.13;;;-0.48;100.00
3250;BME280;1637;42.020;23.992;2023-01-26T04:24:42;92941.50;;;-0.39;100.00
3250;BME280;1637;42.020;23.992;2023-01-26T04:27:09;92939.31;;;-0.61;100.00
3250;BME280;1637;42.020;23.992;2023-01-26T04:29:36;92948.06;;;-0.57;100.00
3250;BME280;1637;42.020;23.992;2023-01-26T04:32:03;92932.75;;;-0.67;100.00
3250;BME280;1637;42.020;23.992;2023-01-26T04:34:31;92932.97;;;-0.48;100.00
3250;BME280;1637;42.020;23.992;2023-01-26T04:36:58;92933.41;;;-0.46;100.00
3250;BME280;1637;42.020;23.992;2023-01-26T04:39:25;92927.06;;;-0.45;100.00
3250;BME280;1637;42.020;23.992;2023-01-26T04:41:51;92931.00;;;-0.27;100.00
3250;BME280;1637;42.020;23.992;2023-01-26T04:44:18;92923.97;;;-0.35;100.00
3250;BME280;1637;42.020;23.992;2023-01-26T04:46:45;92925.97;;;-0.32;100.00
3250;BME280;1637;42.020;23.992;2023-01-26T04:49:13;92931.50;;;-0.82;100.00
3250;BME280;1637;42.020;23.992;2023-01-26T04:51:41;92933.47;;;-0.91;100.00
3250;BME280;1637;42.020;23.992;2023-01-26T04:54:08;92934.94;;;-0.57;100.00
3250;BME280;1637;42.020;23.992;2023-01-26T04:56:35;92930.88;;;-0.55;100.00
3250;BME280;1637;42.020;23.992;2023-01-26T04:59:04;92930.22;;;-0.40;100.00
3250;BME280;1637;42.020;23.992;2023-01-26T05:01:32;92916.09;;;-0.35;100.00
3250;BME280;1637;42.020;23.992;2023-01-26T05:03:59;92927.16;;;-0.66;100.00
3250;BME280;1637;42.020;23.992;2023-01-26T05:06:26;92934.06;;;-0.49;100.00
3250;BME280;1637;42.020;23.992;2023-01-26T05:08:54;92921.25;;;-0.39;100.00
3250;BME280;1637;42.020;23.992;2023-01-26T05:11:20;92919.81;;;-0.36;100.00
3250;BME280;1637;42.020;23.992;2023-01-26T05:13:47;92917.19;;;-0.36;100.00
3250;BME280;1637;42.020;23.992;2023-01-26T05:16:15;92915.84;;;-0.18;100.00
3250;BME280;1637;42.020;23.992;2023-01-26T05:18:42;92909.97;;;-0.27;100.00
3250;BME280;1637;42.020;23.992;2023-01-26T05:21:09;92915.53;;;-0.16;100.00
3250;BME280;1637;42.020;23.992;2023-01-26T05:23:36;92916.44;;;-0.24;100.00
3250;BME280;1637;42.020;23.992;2023-01-26T05:26:05;92926.06;;;-0.41;100.00
3250;BME280;1637;42.020;23.992;2023-01-26T05:28:33;92926.72;;;-0.31;100.00
3250;BME280;1637;42.020;23.992;2023-01-26T05:31:00;92929.38;;;-0.44;100.00
3250;BME280;1637;42.020;23.992;2023-01-26T05:33:27;92930.66;;;-0.50;100.00
3250;BME280;1637;42.020;23.992;2023-01-26T05:35:54;92919.38;;;-0.38;100.00
3250;BME280;1637;42.020;23.992;2023-01-26T05:38:21;92925.63;;;-0.30;100.00
3250;BME280;1637;42.020;23.992;2023-01-26T05:40:47;92916.66;;;-0.29;100.00
3250;BME280;1637;42.020;23.992;2023-01-26T05:43:15;92918.72;;;-0.35;100.00
3250;BME280;1637;42.020;23.992;2023-01-26T05:45:42;92925.41;;;-0.38;100.00
3250;BME280;1637;42.020;23.992;2023-01-26T05:48:09;92926.81;;;-0.40;100.00
3250;BME280;1637;42.020;23.992;2023-01-26T05:50:36;92929.38;;;-0.44;100.00
3250;BME280;1637;42.020;23.992;2023-01-26T05:53:05;92921.69;;;-0.37;100.00
3250;BME280;1637;42.020;23.992;2023-01-26T05:55:32;92918.84;;;-0.44;100.00
3250;BME280;1637;42.020;23.992;2023-01-26T05:57:59;92914.09;;;-0.75;100.00
3250;BME280;1637;42.020;23.992;2023-01-26T06:00:27;92916.09;;;-0.47;100.00
3250;BME280;1637;42.020;23.992;2023-01-26T06:02:54;92909.31;;;-0.48;100.00
3250;BME280;1637;42.020;23.992;2023-01-26T06:05:21;92915.00;;;-0.34;100.00
3250;BME280;1637;42.020;23.992;2023-01-26T06:07:47;92891.88;;;-0.53;100.00
3250;BME280;1637;42.020;23.992;2023-01-26T06:10:15;92913.91;;;-0.33;100.00
3250;BME280;1637;42.020;23.992;2023-01-26T06:12:41;92923.09;;;-0.39;100.00
3250;BME280;1637;42.020;23.992;2023-01-26T06:15:09;92922.78;;;-0.38;100.00
3250;BME280;1637;42.020;23.992;2023-01-26T06:17:38;92921.69;;;-0.37;100.00
3250;BME280;1637;42.020;23.992;2023-01-26T06:20:06;92920.91;;;-0.37;100.00
3250;BME280;1637;42.020;23.992;2023-01-26T06:22:33;92924.44;;;-0.45;100.00
3250;BME280;1637;42.020;23.992;2023-01-26T06:25:00;92924.59;;;0.11;100.00
3250;BME280;1637;42.020;23.992;2023-01-26T06:27:27;92925.59;;;1.77;100.00
3250;BME280;1637;42.020;23.992;2023-01-26T06:29:54;92925.06;;;2.03;100.00
3250;BME280;1637;42.020;23.992;2023-01-26T06:32:21;92934.53;;;2.58;100.00
3250;BME280;1637;42.020;23.992;2023-01-26T06:34:49;92926.50;;;2.35;93.24
3250;BME280;1637;42.020;23.992;2023-01-26T06:37:17;92923.63;;;1.27;91.57
3250;BME280;1637;42.020;23.992;2023-01-26T06:39:44;92911.94;;;0.96;92.40
3250;BME280;1637;42.020;23.992;2023-01-26T06:42:11;92909.47;;;0.60;93.76
3250;BME280;1637;42.020;23.992;2023-01-26T06:44:38;92906.91;;;0.36;94.76
3250;BME280;1637;42.020;23.992;2023-01-26T06:47:05;92904.47;;;-0.22;97.76
3250;BME280;1637;42.020;23.992;2023-01-26T06:49:32;92901.56;;;0.20;98.82
3250;BME280;1637;42.020;23.992;2023-01-26T06:52:04;92901.09;;;-0.47;100.00
3250;BME280;1637;42.020;23.992;2023-01-26T06:54:47;92869.72;;;-0.27;100.00
3250;BME280;1637;42.020;23.992;2023-01-26T06:57:14;92896.13;;;-0.12;99.29
3250;BME280;1637;42.020;23.992;2023-01-26T06:59:40;92886.38;;;-0.36;100.00
3250;BME280;1637;42.020;23.992;2023-01-26T07:02:14;92890.66;;;-0.43;100.00
3250;BME280;1637;42.020;23.992;2023-01-26T07:04:41;92884.09;;;-0.49;100.00
3250;BME280;1637;42.020;23.992;2023-01-26T07:07:09;92893.81;;;-0.62;100.00
3250;BME280;1637;42.020;23.992;2023-01-26T07:09:36;92878.41;;;-0.63;100.00
3250;BME280;1637;42.020;23.992;2023-01-26T07:12:03;92867.19;;;-0.60;100.00
3250;BME280;1637;42.020;23.992;2023-01-26T07:14:30;92872.25;;;-0.55;100.00
3250;BME280;1637;42.020;23.992;2023-01-26T07:16:57;92869.72;;;-0.52;100.00
3250;BME280;1637;42.020;23.992;2023-01-26T07:19:24;92870.78;;;-0.04;100.00
3250;BME280;1637;42.020;23.992;2023-01-26T07:21:50;92869.25;;;-0.05;100.00
3250;BME280;1637;42.020;23.992;2023-01-26T07:24:19;92863.66;;;-0.16;100.00
3250;BME280;1637;42.020;23.992;2023-01-26T07:26:46;92865.22;;;-0.39;100.00
3250;BME280;1637;42.020;23.992;2023-01-26T07:29:12;92861.47;;;-0.38;100.00
3250;BME280;1637;42.020;23.992;2023-01-26T07:31:39;92867.75;;;-0.43;100.00
3250;BME280;1637;42.020;23.992;2023-01-26T07:34:08;92838.41;;;-0.05;99.33
3250;BME280;1637;42.020;23.992;2023-01-26T07:36:35;92865.03;;;0.18;97.69
3250;BME280;1637;42.020;23.992;2023-01-26T07:39:02;92872.53;;;0.32;96.05
3250;BME280;1637;42.020;23.992;2023-01-26T07:41:31;92871.94;;;0.11;96.47
3250;BME280;1637;42.020;23.992;2023-01-26T07:43:58;92872.06;;;0.02;97.67
3250;BME280;1637;42.020;23.992;2023-01-26T07:46:25;92866.19;;;0.21;98.03
3250;BME280;1637;42.020;23.992;2023-01-26T07:48:52;92835.13;;;-0.02;98.87
3250;BME280;1637;42.020;23.992;2023-01-26T07:51:19;92859.44;;;0.08;100.00
3250;BME280;1637;42.020;23.992;2023-01-26T07:53:46;92853.88;;;-0.03;100.00
3250;BME280;1637;42.020;23.992;2023-01-26T07:56:15;92852.09;;;0.01;100.00
3250;BME280;1637;42.020;23.992;2023-01-26T07:58:49;92859.47;;;-0.05;100.00
3250;BME280;1637;42.020;23.992;2023-01-26T08:01:16;92855.66;;;0.21;100.00
3250;BME280;1637;42.020;23.992;2023-01-26T08:03:43;92848.13;;;0.07;100.00
3250;BME280;1637;42.020;23.992;2023-01-26T08:06:11;92853.63;;;0.02;100.00
3250;BME280;1637;42.020;23.992;2023-01-26T08:08:39;92847.03;;;0.20;100.00
3250;BME280;1637;42.020;23.992;2023-01-26T08:11:07;92827.41;;;0.06;100.00
3250;BME280;1637;42.020;23.992;2023-01-26T08:13:35;92837.06;;;0.02;100.00
3250;BME280;1637;42.020;23.992;2023-01-26T08:16:05;92837.00;;;-0.02;100.00
3250;BME280;1637;42.020;23.992;2023-01-26T08:18:33;92833.97;;;-0.28;100.00
3250;BME280;1637;42.020;23.992;2023-01-26T08:21:00;92836.63;;;0.12;100.00
3250;BME280;1637;42.020;23.992;2023-01-26T08:23:27;92833.56;;;0.38;100.00
3250;BME280;1637;42.020;23.992;2023-01-26T08:25:54;92834.03;;;0.55;98.61
3250;BME280;1637;42.020;23.992;2023-01-26T08:28:20;92836.50;;;0.20;97.44
3250;BME280;1637;42.020;23.992;2023-01-26T08:30:47;92844.34;;;0.32;97.95
3250;BME280;1637;42.020;23.992;2023-01-26T08:33:15;92842.66;;;0.12;97.81
3250;BME280;1637;42.020;23.992;2023-01-26T08:35:42;92841.75;;;0.20;99.18
3250;BME280;1637;42.020;23.992;2023-01-26T08:38:09;92846.88;;;0.29;99.07
3250;BME280;1637;42.020;23.992;2023-01-26T08:40:36;92844.66;;;0.31;99.45
3250;BME280;1637;42.020;23.992;2023-01-26T08:43:03;92840.06;;;0.56;98.11
3250;BME280;1637;42.020;23.992;2023-01-26T08:45:30;92839.78;;;0.89;97.60
3250;BME280;1637;42.020;23.992;2023-01-26T08:47:57;92835.59;;;0.88;96.20
3250;BME280;1637;42.020;23.992;2023-01-26T08:50:25;92840.84;;;0.56;95.42
3250;BME280;1637;42.020;23.992;2023-01-26T08:52:54;92837.97;;;0.61;97.34
3250;BME280;1637;42.020;23.992;2023-01-26T08:55:22;92816.34;;;0.56;97.91
3250;BME280;1637;42.020;23.992;2023-01-26T08:57:51;92838.50;;;0.83;95.48
3250;BME280;1637;42.020;23.992;2023-01-26T09:00:20;92846.44;;;1.14;91.65
3250;BME280;1637;42.020;23.992;2023-01-26T09:02:47;92834.69;;;1.27;90.60
3250;BME280;1637;42.020;23.992;2023-01-26T09:05:14;92849.41;;;1.28;90.96
3250;BME280;1637;42.020;23.992;2023-01-26T09:07:43;92843.78;;;1.46;88.96
3250;BME280;1637;42.020;23.992;2023-01-26T09:10:10;92834.88;;;1.19;90.81
3250;BME280;1637;42.020;23.992;2023-01-26T09:12:37;92830.28;;;1.16;91.45
3250;BME280;1637;42.020;23.992;2023-01-26T09:15:06;92855.53;;;1.32;90.06
3250;BME280;1637;42.020;23.992;2023-01-26T09:17:33;92826.19;;;1.02;92.27
3250;BME280;1637;42.020;23.992;2023-01-26T09:20:00;92825.50;;;1.21;91.96
3250;BME280;1637;42.020;23.992;2023-01-26T09:22:27;92805.59;;;1.08;92.37
3250;BME280;1637;42.020;23.992;2023-01-26T09:24:56;92813.84;;;1.22;90.05
3250;BME280;1637;42.020;23.992;2023-01-26T09:27:23;92819.91;;;1.23;90.27
3250;BME280;1637;42.020;23.992;2023-01-26T09:29:50;92818.44;;;0.94;93.03
3250;BME280;1637;42.020;23.992;2023-01-26T09:32:18;92802.19;;;1.08;93.22
3250;BME280;1637;42.020;23.992;2023-01-26T09:34:45;92795.66;;;1.01;92.39
3250;BME280;1637;42.020;23.992;2023-01-26T09:37:12;92789.34;;;1.06;93.55
3250;BME280;1637;42.020;23.992;2023-01-26T09:39:39;92780.94;;;1.00;93.44
3250;BME280;1637;42.020;23.992;2023-01-26T09:42:20;92789.00;;;0.92;94.20
3250;BME280;1637;42.020;23.992;2023-01-26T09:44:54;92777.97;;;1.02;94.01
3250;BME280;1637;42.020;23.992;2023-01-26T09:47:28;92775.81;;;0.76;94.65
3250;BME280;1637;42.020;23.992;2023-01-26T09:50:01;92772.16;;;0.96;96.13
3250;BME280;1637;42.020;23.992;2023-01-26T09:52:32;92771.72;;;1.10;93.54
3250;BME280;1637;42.020;23.992;2023-01-26T09:55:02;92762.63;;;0.92;94.76
3250;BME280;1637;42.020;23.992;2023-01-26T09:57:36;92766.00;;;1.40;93.94
3250;BME280;1637;42.020;23.992;2023-01-26T10:00:06;92768.22;;;1.37;91.75
3250;BME280;1637;42.020;23.992;2023-01-26T10:02:43;92759.25;;;0.76;93.47
3250;BME280;1637;42.020;23.992;2023-01-26T10:05:19;92756.50;;;1.19;94.00
3250;BME280;1637;42.020;23.992;2023-01-26T10:07:50;92745.28;;;1.22;93.22
3250;BME280;1637;42.020;23.992;2023-01-26T10:10:21;92737.34;;;1.57;91.40
3250;BME280;1637;42.020;23.992;2023-01-26T10:12:52;92738.28;;;1.65;90.40
3250;BME280;1637;42.020;23.992;2023-01-26T10:15:28;92768.72;;;1.27;90.46
3250;BME280;1637;42.020;23.992;2023-01-26T10:17:57;92732.59;;;1.47;90.68
3250;BME280;1637;42.020;23.992;2023-01-26T10:20:28;92715.03;;;1.55;89.46
3250;BME280;1637;42.020;23.992;2023-01-26T10:23:00;92714.16;;;1.31;90.61
3250;BME280;1637;42.020;23.992;2023-01-26T10:25:32;92722.78;;;1.28;90.52
3250;BME280;1637;42.020;23.992;2023-01-26T10:28:11;92706.88;;;1.60;96.10
3250;BME280;1637;42.020;23.992;2023-01-26T10:30:39;92721.94;;;1.24;93.58
3250;BME280;1637;42.020;23.992;2023-01-26T10:33:13;92684.28;;;1.08;94.17
3250;BME280;1637;42.020;23.992;2023-01-26T10:35:41;92683.94;;;1.10;93.49
3250;BME280;1637;42.020;23.992;2023-01-26T10:38:25;92684.09;;;1.17;93.27
3250;BME280;1637;42.020;23.992;2023-01-26T10:40:51;92680.72;;;1.35;92.03
3250;BME280;1637;42.020;23.992;2023-01-26T10:43:20;92675.53;;;1.39;89.74
3250;BME280;1637;42.020;23.992;2023-01-26T10:45:47;92669.69;;;1.49;92.34
3250;BME280;1637;42.020;23.992;2023-01-26T10:48:17;92677.19;;;1.12;92.27
3250;BME280;1637;42.020;23.992;2023-01-26T10:50:45;92641.66;;;0.55;93.07
3250;BME280;1637;42.020;23.992;2023-01-26T10:53:15;92657.56;;;0.43;93.08
3250;BME280;1637;42.020;23.992;2023-01-26T10:55:57;92653.97;;;1.18;91.60
3250;BME280;1637;42.020;23.992;2023-01-26T10:58:46;92652.72;;;1.50;87.33
3250;BME280;1637;42.020;23.992;2023-01-26T11:01:13;92646.94;;;2.02;87.31
3250;BME280;1637;42.020;23.992;2023-01-26T11:04:03;92644.13;;;2.15;85.72
3250;BME280;1637;42.020;23.992;2023-01-26T11:06:31;92634.69;;;2.14;86.05
3250;BME280;1637;42.020;23.992;2023-01-26T11:09:16;92628.19;;;2.08;85.55
3250;BME280;1637;42.020;23.992;2023-01-26T11:11:55;92614.38;;;2.18;84.58
3250;BME280;1637;42.020;23.992;2023-01-26T11:14:24;92594.88;;;2.26;83.00
3250;BME280;1637;42.020;23.992;2023-01-26T11:16:56;92593.28;;;1.98;83.14
3250;BME280;1637;42.020;23.992;2023-01-26T11:19:35;92607.78;;;2.08;85.31
3250;BME280;1637;42.020;23.992;2023-01-26T11:22:09;92606.00;;;1.51;86.14
3250;BME280;1637;42.020;23.992;2023-01-26T11:24:41;92602.09;;;1.25;87.91
3250;BME280;1637;42.020;23.992;2023-01-26T11:27:31;92572.97;;;0.99;89.49
3250;BME280;1637;42.020;23.992;2023-01-26T11:30:27;92591.34;;;1.53;90.78
3250;BME280;1637;42.020;23.992;2023-01-26T11:33:01;92585.72;;;1.55;90.42
3250;BME280;1637;42.020;23.992;2023-01-26T11:35:38;92578.19;;;1.76;88.21
3250;BME280;1637;42.020;23.992;2023-01-26T11:38:21;92577.03;;;1.54;89.80
3250;BME280;1637;42.020;23.992;2023-01-26T11:40:58;92551.22;;;1.44;90.22
3250;BME280;1637;42.020;23.992;2023-01-26T11:43:51;92571.97;;;1.65;92.75
3250;BME280;1637;42.020;23.992;2023-01-26T11:49:43;92558.88;;;1.11;95.11
3250;BME280;1637;42.020;23.992;2023-01-26T11:52:18;92560.66;;;1.26;96.71
3250;BME280;1637;42.020;23.992;2023-01-26T11:55:03;92537.41;;;1.31;95.39
3250;BME280;1637;42.020;23.992;2023-01-26T11:57:36;92545.84;;;1.60;95.21
3250;BME280;1637;42.020;23.992;2023-01-26T12:00:14;92547.09;;;1.47;94.43
3250;BME280;1637;42.020;23.992;2023-01-26T12:02:45;92532.94;;;1.55;96.52
3250;BME280;1637;42.020;23.992;2023-01-26T12:05:19;92531.94;;;1.21;96.32
3250;BME280;1637;42.020;23.992;2023-01-26T12:07:52;92536.88;;;1.03;99.15
3250;BME280;1637;42.020;23.992;2023-01-26T12:10:24;92530.53;;;0.88;99.32
3250;BME280;1637;42.020;23.992;2023-01-26T12:12:59;92522.84;;;0.99;99.58
3250;BME280;1637;42.020;23.992;2023-01-26T12:15:33;92523.09;;;1.32;99.05
3250;BME280;1637;42.020;23.992;2023-01-26T12:18:05;92516.16;;;1.44;96.30
3250;BME280;1637;42.020;23.992;2023-01-26T12:20:40;92500.22;;;1.59;96.41
3250;BME280;1637;42.020;23.992;2023-01-26T12:23:14;92506.78;;;1.69;95.48
3250;BME280;1637;42.020;23.992;2023-01-26T12:25:45;92509.06;;;1.48;94.59
3250;BME280;1637;42.020;23.992;2023-01-26T12:28:18;92508.63;;;1.46;96.14
3250;BME280;1637;42.020;23.992;2023-01-26T12:30:52;92501.69;;;1.57;97.28
3250;BME280;1637;42.020;23.992;2023-01-26T12:33:21;92502.38;;;1.54;97.94
3250;BME280;1637;42.020;23.992;2023-01-26T12:36:07;92502.00;;;1.32;97.91
3250;BME280;1637;42.020;23.992;2023-01-26T12:38:49;92499.88;;;1.61;99.78
3250;BME280;1637;42.020;23.992;2023-01-26T12:41:29;92397.63;;;0.89;99.31
3250;BME280;1637;42.020;23.992;2023-01-26T12:44:09;92493.53;;;1.43;98.96
3250;BME280;1637;42.020;23.992;2023-01-26T12:46:45;92489.31;;;1.61;98.49
3250;BME280;1637;42.020;23.992;2023-01-26T12:49:15;92495.00;;;1.63;98.88
3250;BME280;1637;42.020;23.992;2023-01-26T12:51:48;92482.63;;;1.02;99.56
3250;BME280;1637;42.020;23.992;2023-01-26T12:54:31;92488.66;;;1.02;100.00
3250;BME280;1637;42.020;23.992;2023-01-26T12:57:01;92480.09;;;0.90;99.06
3250;BME280;1637;42.020;23.992;2023-01-26T12:59:32;92490.78;;;1.16;99.73
3250;BME280;1637;42.020;23.992;2023-01-26T13:02:00;92489.47;;;1.07;100.00
3250;BME280;1637;42.020;23.992;2023-01-26T13:04:35;92487.31;;;0.93;100.00
3250;BME280;1637;42.020;23.992;2023-01-26T13:07:28;92486.75;;;0.84;100.00
3250;BME280;1637;42.020;23.992;2023-01-26T13:10:09;92477.56;;;0.74;100.00
3250;BME280;1637;42.020;23.992;2023-01-26T13:12:46;92447.78;;;0.74;100.00
3250;BME280;1637;42.020;23.992;2023-01-26T13:15:14;92434.69;;;0.77;100.00
3250;BME280;1637;42.020;23.992;2023-01-26T13:17:51;92465.16;;;1.17;100.00
3250;BME280;1637;42.020;23.992;2023-01-26T13:23:41;92478.03;;;0.99;100.00
3250;BME280;1637;42.020;23.992;2023-01-26T13:29:32;92448.72;;;1.23;100.00
3250;BME280;1637;42.020;23.992;2023-01-26T13:34:48;92442.44;;;1.31;100.00
3250;BME280;1637;42.020;23.992;2023-01-26T13:37:22;92444.31;;;1.54;100.00
3250;BME280;1637;42.020;23.992;2023-01-26T13:39:55;92444.16;;;1.43;100.00
3250;BME280;1637;42.020;23.992;2023-01-26T13:42:29;92438.56;;;1.48;100.00